createdAt,value
2023-03-01T00:00:24.712Z,13.82
2023-03-01T00:02:54.263Z,15.40
2023-03-01T00:05:23.744Z,15.45
2023-03-01T00:07:56.370Z,15.48
2023-03-01T00:10:28.449Z,14.35
2023-03-01T00:12:57.938Z,15.27
2023-03-01T00:15:27.462Z,16.88
2023-03-01T00:17:56.978Z,15.63
2023-03-01T00:20:26.501Z,15.60
2023-03-01T00:22:55.947Z,16.58
2023-03-01T00:25:28.200Z,16.98
2023-03-01T00:27:57.642Z,15.52
2023-03-01T00:30:27.207Z,15.55
2023-03-01T00:32:56.745Z,16.52
2023-03-01T00:35:26.327Z,14.98
2023-03-01T00:37:58.800Z,16.25
2023-03-01T00:40:30.936Z,16.52
2023-03-01T00:43:00.445Z,17.05
2023-03-01T00:45:30.415Z,14.90
2023-03-01T00:47:59.965Z,15.43
2023-03-01T00:50:29.943Z,17.48
2023-03-01T00:52:59.425Z,15.32
2023-03-01T00:55:31.526Z,15.13
2023-03-01T00:58:01.157Z,15.18
2023-03-01T01:00:30.939Z,15.30
2023-03-01T01:03:00.420Z,15.80
2023-03-01T01:05:29.974Z,17.63
2023-03-01T01:07:59.497Z,16.65
2023-03-01T01:10:31.580Z,16.73
2023-03-01T01:13:01.040Z,18.15
2023-03-01T01:15:30.756Z,16.63
2023-03-01T01:18:00.245Z,17.77
2023-03-01T01:20:29.738Z,17.15
2023-03-01T01:22:59.307Z,16.33
2023-03-01T01:25:31.329Z,19.42
2023-03-01T01:28:00.790Z,20.30
2023-03-01T01:30:30.324Z,19.38
2023-03-01T01:32:59.773Z,18.30
2023-03-01T01:35:29.303Z,17.80
2023-03-01T01:37:58.816Z,16.45
2023-03-01T01:40:30.825Z,18.77
2023-03-01T01:43:00.304Z,17.80
2023-03-01T01:45:35.678Z,18.63
2023-03-01T01:48:07.241Z,18.67
2023-03-01T01:50:38.989Z,17.17
2023-03-01T01:53:10.478Z,17.77
2023-03-01T01:55:44.629Z,16.20
2023-03-01T01:58:14.930Z,15.73
2023-03-01T02:00:44.630Z,18.08
2023-03-01T02:03:18.858Z,17.27
2023-03-01T02:05:55.231Z,16.65
2023-03-01T02:08:25.288Z,16.40
2023-03-01T02:10:57.308Z,17.17
2023-03-01T02:13:26.863Z,18.17
2023-03-01T02:15:56.338Z,17.25
2023-03-01T02:18:26.218Z,16.58
2023-03-01T02:21:03.498Z,16.98
2023-03-01T02:23:32.995Z,17.95
2023-03-01T02:26:07.440Z,16.65
2023-03-01T02:28:40.011Z,17.80
2023-03-01T02:31:22.769Z,17.58
2023-03-01T02:33:52.272Z,16.77
2023-03-01T02:36:23.226Z,17.33
2023-03-01T02:38:52.911Z,17.98
2023-03-01T02:41:22.887Z,18.45
2023-03-01T02:43:54.978Z,18.10
2023-03-01T02:46:25.918Z,17.95
2023-03-01T02:51:46.999Z,17.02
2023-03-01T02:54:21.756Z,17.75
2023-03-01T02:56:51.982Z,18.75
2023-03-01T02:59:27.926Z,16.35
2023-03-01T03:01:57.373Z,17.73
2023-03-01T03:04:26.878Z,18.83
2023-03-01T03:06:56.319Z,17.58
2023-03-01T03:09:25.782Z,18.38
2023-03-01T03:11:55.405Z,18.45
2023-03-01T03:14:27.458Z,18.13
2023-03-01T03:16:56.927Z,18.25
2023-03-01T03:19:26.404Z,18.40
2023-03-01T03:21:55.894Z,18.02
2023-03-01T03:24:25.414Z,18.80
2023-03-01T03:26:54.922Z,18.58
2023-03-01T03:29:26.971Z,19.17
2023-03-01T03:31:56.544Z,19.70
2023-03-01T03:34:26.071Z,19.95
2023-03-01T03:37:00.436Z,19.52
2023-03-01T03:39:35.841Z,19.90
2023-03-01T03:42:05.598Z,19.92
2023-03-01T03:44:38.539Z,18.88
2023-03-01T03:47:08.024Z,19.33
2023-03-01T03:49:37.602Z,20.00
2023-03-01T03:52:14.360Z,18.50
2023-03-01T03:54:44.105Z,20.70
2023-03-01T03:57:13.595Z,19.88
2023-03-01T03:59:45.701Z,19.75
2023-03-01T04:02:23.293Z,19.17
2023-03-01T04:04:53.124Z,18.27
2023-03-01T04:07:22.582Z,20.00
2023-03-01T04:09:52.261Z,19.15
2023-03-01T04:12:24.018Z,20.45
2023-03-01T04:14:56.061Z,20.25
2023-03-01T04:17:25.666Z,19.60
2023-03-01T04:19:55.171Z,20.58
2023-03-01T04:22:30.652Z,19.08
2023-03-01T04:25:03.088Z,19.15
2023-03-01T04:27:32.588Z,20.63
2023-03-01T04:30:04.678Z,20.02
2023-03-01T04:32:34.281Z,21.35
2023-03-01T04:35:03.859Z,19.63
2023-03-01T04:37:33.398Z,19.80
2023-03-01T04:40:05.906Z,20.48
2023-03-01T04:42:35.378Z,22.02
2023-03-01T04:45:14.205Z,19.67
2023-03-01T04:47:45.267Z,22.13
2023-03-01T04:52:45.520Z,21.55
2023-03-01T04:55:15.044Z,21.10
2023-03-01T04:57:44.517Z,21.25
2023-03-01T05:00:24.592Z,21.58
2023-03-01T05:02:54.844Z,21.25
2023-03-01T05:05:26.677Z,22.52
2023-03-01T05:07:59.903Z,22.05
2023-03-01T05:10:30.115Z,21.95
2023-03-01T05:13:00.027Z,22.20
2023-03-01T05:15:33.105Z,23.52
2023-03-01T05:18:03.364Z,22.63
2023-03-01T05:20:33.310Z,22.13
2023-03-01T05:23:06.326Z,21.30
2023-03-01T05:25:41.137Z,21.42
2023-03-01T05:28:11.115Z,21.90
2023-03-01T05:30:43.216Z,22.08
2023-03-01T05:33:14.620Z,22.75
2023-03-01T05:35:44.879Z,22.35
2023-03-01T05:38:14.918Z,22.10
2023-03-01T05:40:44.566Z,21.70
2023-03-01T05:43:14.089Z,23.88
2023-03-01T05:45:46.277Z,22.77
2023-03-01T05:48:16.075Z,22.15
2023-03-01T05:50:46.804Z,22.38
2023-03-01T05:53:17.019Z,26.08
2023-03-01T05:55:48.297Z,24.52
2023-03-01T05:58:18.989Z,23.08
2023-03-01T06:00:53.442Z,21.73
2023-03-01T06:03:23.560Z,22.30
2023-03-01T06:05:52.971Z,23.52
2023-03-01T06:08:23.135Z,22.67
2023-03-01T06:10:52.564Z,23.30
2023-03-01T06:13:22.007Z,23.15
2023-03-01T06:15:54.102Z,24.35
2023-03-01T06:18:23.551Z,25.17
2023-03-01T06:20:56.584Z,24.52
2023-03-01T06:23:26.219Z,22.85
2023-03-01T06:25:55.732Z,22.80
2023-03-01T06:28:25.194Z,21.33
2023-03-01T06:30:57.414Z,23.02
2023-03-01T06:33:27.142Z,23.48
2023-03-01T06:35:58.167Z,22.20
2023-03-01T06:40:57.830Z,22.63
2023-03-01T06:43:27.474Z,22.92
2023-03-01T06:45:59.522Z,23.30
2023-03-01T06:48:29.064Z,23.92
2023-03-01T06:50:58.620Z,25.10
2023-03-01T06:53:28.079Z,23.95
2023-03-01T06:56:01.065Z,24.50
2023-03-01T06:58:30.521Z,25.20
2023-03-01T07:01:05.479Z,23.00
2023-03-01T07:03:35.837Z,24.27
2023-03-01T07:06:05.253Z,26.25
2023-03-01T07:08:34.705Z,22.80
2023-03-01T07:11:05.056Z,22.55
2023-03-01T07:13:34.532Z,22.42
2023-03-01T07:16:06.790Z,21.27
2023-03-01T07:18:36.262Z,20.15
2023-03-01T07:21:08.483Z,21.90
2023-03-01T07:23:38.082Z,20.52
2023-03-01T07:26:08.049Z,22.77
2023-03-01T07:28:40.058Z,21.85
2023-03-01T07:31:12.213Z,20.08
2023-03-01T07:33:41.671Z,21.52
2023-03-01T07:36:12.219Z,18.90
2023-03-01T07:38:41.692Z,21.63
2023-03-01T07:41:11.682Z,19.92
2023-03-01T07:43:41.161Z,20.13
2023-03-01T07:46:13.273Z,21.08
2023-03-01T07:48:42.988Z,20.58
2023-03-01T07:51:14.049Z,21.58
2023-03-01T07:56:13.553Z,19.42
2023-03-01T07:58:44.041Z,19.67
2023-03-01T08:01:17.323Z,22.02
2023-03-01T08:03:47.294Z,20.10
2023-03-01T08:06:18.178Z,21.17
2023-03-01T08:08:48.031Z,21.67
2023-03-01T08:11:18.103Z,21.08
2023-03-01T08:13:50.454Z,21.38
2023-03-01T08:16:23.907Z,20.70
2023-03-01T08:18:53.522Z,21.20
2023-03-01T08:21:22.981Z,20.05
2023-03-01T08:23:52.506Z,19.98
2023-03-01T08:26:23.058Z,21.77
2023-03-01T08:28:52.919Z,20.30
2023-03-01T08:31:26.008Z,21.75
2023-03-01T08:33:57.195Z,19.10
2023-03-01T08:38:56.045Z,20.45
2023-03-01T08:41:25.613Z,19.40
2023-03-01T08:43:59.660Z,19.90
2023-03-01T08:46:32.605Z,18.90
2023-03-01T08:49:02.250Z,20.02
2023-03-01T08:51:33.628Z,18.10
2023-03-01T08:54:03.070Z,18.27
2023-03-01T08:56:32.748Z,17.80
2023-03-01T08:59:02.480Z,17.10
2023-03-01T09:01:34.605Z,17.63
2023-03-01T09:04:04.109Z,18.08
2023-03-01T09:06:34.868Z,17.83
2023-03-01T09:09:04.618Z,19.33
2023-03-01T09:11:34.295Z,18.02
2023-03-01T09:14:03.766Z,17.67
2023-03-01T09:16:37.144Z,19.33
2023-03-01T09:19:06.780Z,19.08
2023-03-01T09:21:40.607Z,18.55
2023-03-01T09:24:10.791Z,17.33
2023-03-01T09:26:40.272Z,16.88
2023-03-01T09:29:10.721Z,22.08
2023-03-01T09:31:43.026Z,19.65
2023-03-01T09:34:12.661Z,18.27
2023-03-01T09:36:42.449Z,21.65
2023-03-01T09:39:11.923Z,17.15
2023-03-01T09:41:53.218Z,18.55
2023-03-01T09:44:28.295Z,19.33
2023-03-01T09:47:00.803Z,19.38
2023-03-01T09:49:31.472Z,18.02
2023-03-01T09:52:03.701Z,21.08
2023-03-01T09:54:33.156Z,18.23
2023-03-01T09:57:10.045Z,20.27
2023-03-01T09:59:47.518Z,18.58
2023-03-01T10:02:27.192Z,20.60
2023-03-01T10:04:57.490Z,18.60
2023-03-01T10:07:33.321Z,19.27
2023-03-01T10:10:05.639Z,20.85
2023-03-01T10:12:37.840Z,19.98
2023-03-01T10:15:11.586Z,19.00
2023-03-01T10:17:45.886Z,20.55
2023-03-01T10:20:20.991Z,18.15
2023-03-01T10:22:52.952Z,21.00
2023-03-01T10:25:28.178Z,20.92
2023-03-01T10:27:58.677Z,21.52
2023-03-01T10:30:36.199Z,19.30
2023-03-01T10:33:08.239Z,20.50
2023-03-01T10:35:38.092Z,18.75
2023-03-01T10:38:08.606Z,20.52
2023-03-01T10:40:38.636Z,19.77
2023-03-01T10:43:09.067Z,20.77
2023-03-01T10:45:39.371Z,19.13
2023-03-01T10:48:20.333Z,19.60
2023-03-01T10:50:50.475Z,19.52
2023-03-01T10:53:30.053Z,20.63
2023-03-01T10:56:07.155Z,19.45
2023-03-01T10:58:37.031Z,21.85
2023-03-01T11:01:07.726Z,20.63
2023-03-01T11:03:40.562Z,20.75
2023-03-01T11:06:24.110Z,19.80
2023-03-01T11:08:54.992Z,19.60
2023-03-01T11:11:30.214Z,20.42
2023-03-01T11:14:01.452Z,19.50
2023-03-01T11:16:33.466Z,20.08
2023-03-01T11:19:18.569Z,18.95
2023-03-01T11:21:55.977Z,20.70
2023-03-01T11:24:28.004Z,20.00
2023-03-01T11:26:58.381Z,19.85
2023-03-01T11:29:37.268Z,17.27
2023-03-01T11:32:11.214Z,20.45
2023-03-01T11:34:46.990Z,18.73
2023-03-01T11:37:26.105Z,18.25
2023-03-01T11:39:59.691Z,18.58
2023-03-01T11:42:32.395Z,17.25
2023-03-01T11:45:03.231Z,19.08
2023-03-01T11:47:37.526Z,19.17
2023-03-01T11:50:19.852Z,18.45
2023-03-01T11:53:04.659Z,19.13
2023-03-01T11:55:40.845Z,19.50
2023-03-01T11:58:21.749Z,19.77
2023-03-01T12:01:02.847Z,17.90
2023-03-01T12:03:41.162Z,19.25
2023-03-01T12:06:24.840Z,16.55
2023-03-01T12:08:59.754Z,16.77
2023-03-01T12:11:34.157Z,16.67
2023-03-01T12:14:19.663Z,17.50
2023-03-01T12:17:02.236Z,16.23
2023-03-01T12:19:38.002Z,16.67
2023-03-01T12:22:20.814Z,16.60
2023-03-01T12:25:09.468Z,16.60
2023-03-01T12:28:08.428Z,19.48
2023-03-01T12:30:44.113Z,16.90
2023-03-01T12:33:21.402Z,15.40
2023-03-01T12:35:58.300Z,16.95
2023-03-01T12:38:41.341Z,16.73
2023-03-01T12:41:31.461Z,17.80
2023-03-01T12:44:05.293Z,16.75
2023-03-01T12:46:42.055Z,16.67
2023-03-01T12:49:13.677Z,16.17
2023-03-01T12:51:43.649Z,15.88
2023-03-01T12:54:18.889Z,15.57
2023-03-01T12:56:54.114Z,16.52
2023-03-01T12:59:26.646Z,14.70
2023-03-01T13:01:58.140Z,14.88
2023-03-01T13:04:38.067Z,14.25
2023-03-01T13:07:20.428Z,14.85
2023-03-01T13:10:02.535Z,15.13
2023-03-01T13:12:48.406Z,15.00
2023-03-01T13:15:32.026Z,15.00
2023-03-01T13:18:06.016Z,15.05
2023-03-01T13:20:37.741Z,14.85
2023-03-01T13:23:10.046Z,14.35
2023-03-01T13:25:57.560Z,13.73
2023-03-01T13:28:52.767Z,13.98
2023-03-01T13:32:05.658Z,13.73
2023-03-01T13:34:56.384Z,13.48
2023-03-01T13:37:31.537Z,13.20
2023-03-01T13:40:05.280Z,13.43
2023-03-01T13:42:56.186Z,13.15
2023-03-01T13:45:39.097Z,11.57
2023-03-01T13:48:13.128Z,13.10
2023-03-01T13:50:47.077Z,13.25
2023-03-01T13:53:18.379Z,11.77
2023-03-01T13:58:26.581Z,11.38
2023-03-01T14:01:00.538Z,12.38
2023-03-01T14:03:30.800Z,11.90
2023-03-01T14:06:14.695Z,13.18
2023-03-01T14:08:45.492Z,13.30
2023-03-01T14:11:48.916Z,12.95
2023-03-01T14:14:40.809Z,18.67
2023-03-01T14:17:19.054Z,14.65
2023-03-01T14:19:49.412Z,12.90
2023-03-01T14:22:22.711Z,13.38
2023-03-01T14:24:53.699Z,12.93
2023-03-01T14:27:23.193Z,15.52
2023-03-01T14:30:02.233Z,14.00
2023-03-01T14:32:32.640Z,13.18
2023-03-01T14:35:02.774Z,13.32
2023-03-01T14:37:33.627Z,13.55
2023-03-01T14:40:08.054Z,13.63
2023-03-01T14:42:38.750Z,14.75
2023-03-01T14:45:13.209Z,13.73
2023-03-01T14:47:44.416Z,13.40
2023-03-01T14:50:23.920Z,13.77
2023-03-01T14:52:57.710Z,12.75
2023-03-01T14:55:29.867Z,14.18
2023-03-01T14:58:01.950Z,14.02
2023-03-01T15:00:36.530Z,13.93
2023-03-01T15:03:14.254Z,14.48
2023-03-01T15:05:44.420Z,14.32
2023-03-01T15:08:19.984Z,14.27
2023-03-01T15:11:00.043Z,13.60
2023-03-01T15:13:30.273Z,13.70
2023-03-01T15:16:10.925Z,16.47
2023-03-01T15:18:40.422Z,13.40
2023-03-01T15:21:10.975Z,15.30
2023-03-01T15:23:40.575Z,13.82
2023-03-01T15:26:10.017Z,16.70
2023-03-01T15:28:43.352Z,14.45
2023-03-01T15:31:22.183Z,13.95
2023-03-01T15:33:51.704Z,14.25
2023-03-01T15:36:43.071Z,14.98
2023-03-01T15:39:38.542Z,14.30
2023-03-01T15:42:12.284Z,14.27
2023-03-01T15:44:44.006Z,14.38
2023-03-01T15:47:30.473Z,15.45
2023-03-01T15:50:00.285Z,13.55
2023-03-01T15:52:32.621Z,14.52
2023-03-01T15:55:02.635Z,14.70
2023-03-01T15:57:32.256Z,14.27
2023-03-01T16:00:02.052Z,13.52
2023-03-01T16:02:34.280Z,14.15
2023-03-01T16:05:04.414Z,13.50
2023-03-01T16:07:35.394Z,12.70
2023-03-01T16:10:05.860Z,13.63
2023-03-01T16:12:35.337Z,14.18
2023-03-01T16:15:05.337Z,14.02
2023-03-01T16:17:37.401Z,16.15
2023-03-01T16:20:08.815Z,13.35
2023-03-01T16:22:39.355Z,13.68
2023-03-01T16:25:10.047Z,13.20
2023-03-01T16:27:39.462Z,14.55
2023-03-01T16:30:10.279Z,13.88
2023-03-01T16:32:44.109Z,14.75
2023-03-01T16:35:14.653Z,15.32
2023-03-01T16:37:44.275Z,13.57
2023-03-01T16:40:21.803Z,13.43
2023-03-01T16:42:51.278Z,13.70
2023-03-01T16:45:25.427Z,15.88
2023-03-01T16:47:57.614Z,13.75
2023-03-01T16:50:27.155Z,14.43
2023-03-01T16:52:56.610Z,14.75
2023-03-01T16:55:26.066Z,13.88
2023-03-01T16:57:55.584Z,14.48
2023-03-01T17:00:25.794Z,13.32
2023-03-01T17:02:57.960Z,15.03
2023-03-01T17:05:27.401Z,13.70
2023-03-01T17:07:58.147Z,12.82
2023-03-01T17:10:27.633Z,12.85
2023-03-01T17:12:57.160Z,14.07
2023-03-01T17:15:26.597Z,14.07
2023-03-01T17:17:58.649Z,15.32
2023-03-01T17:20:28.101Z,13.98
2023-03-01T17:22:57.581Z,14.60
2023-03-01T17:25:27.002Z,14.15
2023-03-01T17:27:56.475Z,14.10
2023-03-01T17:30:26.208Z,13.40
2023-03-01T17:32:58.306Z,13.10
2023-03-01T17:35:27.813Z,13.90
2023-03-01T17:37:57.276Z,15.15
2023-03-01T17:40:26.719Z,13.65
2023-03-01T17:42:57.130Z,15.38
2023-03-01T17:45:26.716Z,12.55
2023-03-01T17:47:58.872Z,13.95
2023-03-01T17:50:28.815Z,13.05
2023-03-01T17:52:58.677Z,14.65
2023-03-01T17:55:28.126Z,13.80
2023-03-01T17:57:57.826Z,13.85
2023-03-01T18:00:28.110Z,12.98
2023-03-01T18:03:00.157Z,14.18
2023-03-01T18:05:29.908Z,13.73
2023-03-01T18:07:59.390Z,14.60
2023-03-01T18:10:28.919Z,15.13
2023-03-01T18:12:58.345Z,13.55
2023-03-01T18:15:27.783Z,13.93
2023-03-01T18:17:59.856Z,14.65
2023-03-01T18:20:30.832Z,14.10
2023-03-01T18:23:00.306Z,15.18
2023-03-01T18:25:29.992Z,14.38
2023-03-01T18:27:59.535Z,13.77
2023-03-01T18:30:28.990Z,12.88
2023-03-01T18:33:01.105Z,13.88
2023-03-01T18:35:31.594Z,12.40
2023-03-01T18:38:01.129Z,14.45
2023-03-01T18:40:31.958Z,13.48
2023-03-01T18:43:01.431Z,13.00
2023-03-01T18:45:30.896Z,14.77
2023-03-01T18:48:02.930Z,13.15
2023-03-01T18:50:32.475Z,15.55
2023-03-01T18:53:01.931Z,14.27
2023-03-01T18:55:31.431Z,12.63
2023-03-01T18:58:00.875Z,13.13
2023-03-01T19:00:30.354Z,14.52
2023-03-01T19:03:01.188Z,13.63
2023-03-01T19:05:33.490Z,13.23
2023-03-01T19:08:02.964Z,12.90
2023-03-01T19:10:32.459Z,13.75
2023-03-01T19:13:01.922Z,13.70
2023-03-01T19:15:31.348Z,13.75
2023-03-01T19:18:04.433Z,16.80
2023-03-01T19:20:37.823Z,13.82
2023-03-01T19:23:08.886Z,12.98
2023-03-01T19:25:38.480Z,14.02
2023-03-01T19:28:07.985Z,13.63
2023-03-01T19:30:37.449Z,13.48
2023-03-01T19:33:06.931Z,14.10
2023-03-01T19:35:39.545Z,14.10
2023-03-01T19:38:09.899Z,14.70
2023-03-01T19:40:39.271Z,15.05
2023-03-01T19:43:08.738Z,14.65
2023-03-01T19:45:38.179Z,13.80
2023-03-01T19:48:08.740Z,18.23
2023-03-01T19:50:40.812Z,17.20
2023-03-01T19:53:10.252Z,14.13
2023-03-01T19:55:39.896Z,14.40
2023-03-01T19:58:10.419Z,16.25
2023-03-01T20:00:40.036Z,13.60
2023-03-01T20:03:09.629Z,15.57
2023-03-01T20:05:42.859Z,15.23
2023-03-01T20:08:12.335Z,16.35
2023-03-01T20:10:41.777Z,14.52
2023-03-01T20:13:11.262Z,16.55
2023-03-01T20:15:43.912Z,16.92
2023-03-01T20:18:15.016Z,14.80
2023-03-01T20:23:20.163Z,15.98
2023-03-01T20:25:50.295Z,16.80
2023-03-01T20:28:20.076Z,19.47
2023-03-01T20:30:49.540Z,20.80
2023-03-01T20:33:18.987Z,25.80
2023-03-01T20:35:51.026Z,26.60
2023-03-01T20:38:20.539Z,27.58
2023-03-01T20:40:49.970Z,30.15
2023-03-01T20:43:19.415Z,32.60
2023-03-01T20:45:48.871Z,17.23
2023-03-01T20:48:18.295Z,18.05
2023-03-01T20:50:47.733Z,18.33
2023-03-01T20:53:19.756Z,16.20
2023-03-01T20:55:49.290Z,15.98
2023-03-01T20:58:18.723Z,16.83
2023-03-01T21:00:48.252Z,15.57
2023-03-01T21:03:17.711Z,15.82
2023-03-01T21:05:47.192Z,16.23
2023-03-01T21:08:19.211Z,16.55
2023-03-01T21:10:52.727Z,17.20
2023-03-01T21:13:22.247Z,15.90
2023-03-01T21:15:58.227Z,16.88
2023-03-01T21:18:29.719Z,15.13
2023-03-01T21:21:01.429Z,17.17
2023-03-01T21:23:34.330Z,17.05
2023-03-01T21:26:05.186Z,16.80
2023-03-01T21:28:34.987Z,15.75
2023-03-01T21:31:08.603Z,15.43
2023-03-01T21:33:38.187Z,15.57
2023-03-01T21:36:09.298Z,16.35
2023-03-01T21:41:12.783Z,17.08
2023-03-01T21:43:42.798Z,14.35
2023-03-01T21:46:15.206Z,16.67
2023-03-01T21:48:45.322Z,17.15
2023-03-01T21:51:15.384Z,16.73
2023-03-01T21:53:47.545Z,16.08
2023-03-01T21:56:18.761Z,16.45
2023-03-01T21:58:48.218Z,16.15
2023-03-01T22:01:18.707Z,15.38
2023-03-01T22:03:48.246Z,16.33
2023-03-01T22:06:22.708Z,17.73
2023-03-01T22:08:56.749Z,19.42
2023-03-01T22:11:27.245Z,21.85
2023-03-01T22:13:57.887Z,26.50
2023-03-01T22:16:28.522Z,25.02
2023-03-01T22:18:58.157Z,21.88
2023-03-01T22:21:27.729Z,24.23
2023-03-01T22:24:00.200Z,26.05
2023-03-01T22:26:30.967Z,23.95
2023-03-01T22:29:02.029Z,25.77
2023-03-01T22:31:31.614Z,24.55
2023-03-01T22:34:01.403Z,23.77
2023-03-01T22:36:30.952Z,24.17
2023-03-01T22:39:04.391Z,20.98
2023-03-01T22:41:34.874Z,21.35
2023-03-01T22:44:04.415Z,20.75
2023-03-01T22:46:34.358Z,19.75
2023-03-01T22:49:05.034Z,18.20
2023-03-01T22:51:36.219Z,18.05
2023-03-01T22:56:38.226Z,16.50
2023-03-01T22:59:11.317Z,18.13
2023-03-01T23:01:41.038Z,18.42
2023-03-01T23:04:10.572Z,18.17
2023-03-01T23:06:50.206Z,18.23
2023-03-01T23:09:23.038Z,18.63
2023-03-01T23:11:52.666Z,17.73
2023-03-01T23:14:22.202Z,18.73
2023-03-01T23:16:52.216Z,17.20
2023-03-01T23:19:21.977Z,17.10
2023-03-01T23:21:54.267Z,18.50
2023-03-01T23:24:31.874Z,19.50
2023-03-01T23:27:02.573Z,19.40
2023-03-01T23:29:32.186Z,19.35
2023-03-01T23:32:01.941Z,18.67
2023-03-01T23:34:31.422Z,19.45
2023-03-01T23:37:00.854Z,19.55
2023-03-01T23:39:33.286Z,20.52
2023-03-01T23:42:02.779Z,18.20
2023-03-01T23:44:32.260Z,18.95
2023-03-01T23:47:02.044Z,20.52
2023-03-01T23:49:31.664Z,18.75
2023-03-01T23:52:01.505Z,18.77
2023-03-01T23:54:33.669Z,19.17
2023-03-01T23:57:03.288Z,18.48
2023-03-01T23:59:32.740Z,19.00
